Wetterdaten: Woche 20.05.13 - 26.05.13 (KW21)
Datum Zeit Temperatur Luftfeuchte Luftdruck Niederschlag Windrichtung Sonnenschein Solar Wind
20.05.2013 00:00 8,0 C 89 % 1010,2 hPa 0,0 l/m W-SW 0,00 h 0 W/m 11,5 km/h (2 Bft)
20.05.2013 01:00 7,6 C 90 % 1010,6 hPa 0,0 l/m W-SW 0,00 h 0 W/m 9,7 km/h (2 Bft)
20.05.2013 02:00 7,2 C 92 % 1010,9 hPa 0,0 l/m SW 0,00 h 0 W/m 10,5 km/h (2 Bft)
20.05.2013 03:00 7,9 C 90 % 1010,9 hPa 0,0 l/m W-SW 0,00 h 0 W/m 14,8 km/h (3 Bft)
20.05.2013 04:00 7,7 C 89 % 1010,7 hPa 0,0 l/m W-SW 0,00 h 0 W/m 19,0 km/h (3 Bft)
20.05.2013 05:00 7,3 C 89 % 1010,9 hPa 0,0 l/m W-SW 0,00 h 8 W/m 16,8 km/h (3 Bft)
20.05.2013 06:00 7,5 C 89 % 1011,1 hPa 0,0 l/m W 0,00 h 49 W/m 13,8 km/h (3 Bft)
20.05.2013 07:00 8,5 C 86 % 1011,3 hPa 0,0 l/m SW 0,92 h 202 W/m 13,4 km/h (3 Bft)
20.05.2013 08:00 9,3 C 83 % 1011,6 hPa 0,0 l/m W-SW 0,08 h 170 W/m 19,2 km/h (3 Bft)
20.05.2013 09:00 9,9 C 79 % 1011,9 hPa 0,0 l/m W-SW 0,00 h 193 W/m 22,6 km/h (4 Bft)
20.05.2013 10:00 11,3 C 72 % 1011,8 hPa 0,0 l/m SW 0,25 h 371 W/m 24,1 km/h (4 Bft)
20.05.2013 11:00 12,8 C 67 % 1011,7 hPa 0,0 l/m SW 0,83 h 790 W/m 26,8 km/h (4 Bft)
20.05.2013 12:00 13,3 C 63 % 1011,3 hPa 0,0 l/m W-SW 0,25 h 476 W/m 23,2 km/h (4 Bft)
20.05.2013 13:00 15,1 C 53 % 1010,8 hPa 0,0 l/m SW 0,92 h 977 W/m 31,4 km/h (5 Bft)
20.05.2013 14:00 16,0 C 51 % 1010,4 hPa 0,0 l/m SW 1,00 h 955 W/m 30,2 km/h (5 Bft)
20.05.2013 15:00 15,7 C 51 % 1010,1 hPa 0,0 l/m W-SW 0,33 h 396 W/m 23,7 km/h (4 Bft)
20.05.2013 16:00 15,5 C 51 % 1010,2 hPa 0,0 l/m W-SW 0,25 h 429 W/m 22,0 km/h (4 Bft)
20.05.2013 17:00 14,8 C 54 % 1010,1 hPa 0,0 l/m W-SW 0,00 h 110 W/m 15,8 km/h (3 Bft)
20.05.2013 18:00 12,7 C 73 % 1010,4 hPa 0,0 l/m SW 0,00 h 78 W/m 14,2 km/h (3 Bft)
20.05.2013 19:00 11,8 C 77 % 1010,8 hPa 0,0 l/m SW 0,17 h 73 W/m 18,1 km/h (3 Bft)
20.05.2013 20:00 10,2 C 81 % 1011,4 hPa 0,0 l/m SW 0,00 h 14 W/m 14,6 km/h (3 Bft)
20.05.2013 21:00 9,6 C 86 % 1012,3 hPa 0,0 l/m SW 0,00 h 0 W/m 9,8 km/h (2 Bft)
20.05.2013 22:00 9,0 C 88 % 1012,7 hPa 0,0 l/m SW 0,00 h 0 W/m 5,7 km/h (1 Bft)
20.05.2013 23:00 8,6 C 91 % 1012,8 hPa 0,0 l/m SW 0,00 h 0 W/m 3,3 km/h (1 Bft)
21.05.2013 00:00 8,2 C 92 % 1012,8 hPa 0,0 l/m SW 0,00 h 0 W/m 3,3 km/h (1 Bft)
21.05.2013 01:00 7,9 C 94 % 1012,6 hPa 0,0 l/m SW 0,00 h 0 W/m 3,3 km/h (1 Bft)
21.05.2013 02:00 7,5 C 94 % 1012,2 hPa 0,0 l/m N 0,00 h 0 W/m 3,2 km/h (1 Bft)
21.05.2013 03:00 7,0 C 95 % 1011,8 hPa 0,0 l/m N 0,00 h 0 W/m 2,0 km/h (1 Bft)
21.05.2013 04:00 6,9 C 97 % 1011,4 hPa 0,0 l/m SW 0,00 h 0 W/m 3,9 km/h (1 Bft)
21.05.2013 05:00 7,5 C 95 % 1011,0 hPa 0,0 l/m W-SW 0,08 h 10 W/m 9,7 km/h (2 Bft)
21.05.2013 06:00 8,1 C 94 % 1010,8 hPa 0,0 l/m SW 0,00 h 24 W/m 7,4 km/h (2 Bft)
21.05.2013 07:00 8,7 C 94 % 1010,8 hPa 0,0 l/m SW 0,00 h 81 W/m 5,1 km/h (1 Bft)
21.05.2013 08:00 9,8 C 85 % 1011,1 hPa 0,0 l/m W-SW 0,00 h 147 W/m 12,8 km/h (3 Bft)
21.05.2013 09:00 9,8 C 82 % 1011,3 hPa 0,0 l/m W-SW 0,00 h 89 W/m 15,4 km/h (3 Bft)
21.05.2013 10:00 10,3 C 79 % 1011,5 hPa 0,0 l/m W-SW 0,00 h 179 W/m 15,8 km/h (3 Bft)
21.05.2013 11:00 10,8 C 77 % 1011,4 hPa 0,0 l/m W-SW 0,00 h 208 W/m 17,6 km/h (3 Bft)
21.05.2013 12:00 10,8 C 81 % 1011,2 hPa 0,0 l/m W-SW 0,17 h 375 W/m 18,9 km/h (3 Bft)
21.05.2013 13:00 11,4 C 77 % 1010,9 hPa 0,0 l/m W 0,00 h 236 W/m 17,0 km/h (3 Bft)
21.05.2013 14:00 12,1 C 72 % 1010,5 hPa 0,0 l/m W 0,00 h 266 W/m 18,6 km/h (3 Bft)
21.05.2013 15:00 12,4 C 73 % 1010,1 hPa 0,0 l/m W-SW 0,17 h 285 W/m 18,6 km/h (3 Bft)
21.05.2013 16:00 12,5 C 75 % 1009,8 hPa 0,0 l/m W-SW 0,58 h 512 W/m 22,0 km/h (4 Bft)
21.05.2013 17:00 12,7 C 70 % 1009,6 hPa 0,0 l/m W-SW 0,25 h 284 W/m 21,7 km/h (4 Bft)
21.05.2013 18:00 12,0 C 70 % 1009,5 hPa 0,0 l/m W-SW 0,33 h 228 W/m 24,3 km/h (4 Bft)
21.05.2013 19:00 11,1 C 75 % 1009,5 hPa 0,0 l/m W-SW 0,00 h 60 W/m 20,6 km/h (4 Bft)
21.05.2013 20:00 10,5 C 80 % 1009,7 hPa 0,0 l/m W-SW 0,00 h 8 W/m 13,8 km/h (3 Bft)
21.05.2013 21:00 9,9 C 83 % 1009,8 hPa 0,0 l/m W-SW 0,00 h 0 W/m 13,3 km/h (3 Bft)
21.05.2013 22:00 9,5 C 88 % 1009,8 hPa 0,0 l/m SW 0,00 h 0 W/m 13,4 km/h (3 Bft)
21.05.2013 23:00 8,9 C 93 % 1009,6 hPa 0,0 l/m SW 0,00 h 0 W/m 14,1 km/h (3 Bft)
22.05.2013 00:00 8,8 C 94 % 1009,3 hPa 0,0 l/m SW 0,00 h 0 W/m 9,3 km/h (2 Bft)
22.05.2013 01:00 8,5 C 96 % 1008,9 hPa 0,0 l/m SW 0,00 h 0 W/m 10,9 km/h (2 Bft)
22.05.2013 02:00 8,4 C 96 % 1008,4 hPa 0,0 l/m SW 0,00 h 0 W/m 9,1 km/h (2 Bft)
22.05.2013 03:00 8,7 C 93 % 1007,9 hPa 0,0 l/m SW 0,00 h 0 W/m 13,4 km/h (3 Bft)
22.05.2013 04:00 8,9 C 92 % 1007,5 hPa 0,0 l/m W-SW 0,00 h 0 W/m 12,9 km/h (3 Bft)
22.05.2013 05:00 8,8 C 95 % 1007,1 hPa 0,6 l/m SW 0,00 h 5 W/m 7,9 km/h (2 Bft)
22.05.2013 06:00 8,7 C 97 % 1006,7 hPa 0,6 l/m SW 0,00 h 21 W/m 8,3 km/h (2 Bft)
22.05.2013 07:00 8,9 C 97 % 1006,6 hPa 0,8 l/m W-SW 0,00 h 35 W/m 8,8 km/h (2 Bft)
22.05.2013 08:00 9,3 C 97 % 1006,9 hPa 0,4 l/m W-SW 0,00 h 86 W/m 9,3 km/h (2 Bft)
22.05.2013 09:00 9,7 C 95 % 1007,3 hPa 0,0 l/m W-NW 0,00 h 79 W/m 9,7 km/h (2 Bft)
22.05.2013 10:00 9,3 C 92 % 1007,8 hPa 0,2 l/m W-NW 0,00 h 101 W/m 14,8 km/h (3 Bft)
22.05.2013 11:00 9,7 C 90 % 1008,3 hPa 0,0 l/m W-NW 0,00 h 191 W/m 16,9 km/h (3 Bft)
22.05.2013 12:00 9,9 C 87 % 1008,9 hPa 0,2 l/m W-NW 0,00 h 159 W/m 20,0 km/h (4 Bft)
22.05.2013 13:00 9,5 C 90 % 1009,4 hPa 0,2 l/m W-NW 0,00 h 139 W/m 15,7 km/h (3 Bft)
22.05.2013 14:00 9,3 C 89 % 1009,9 hPa 0,2 l/m W-NW 0,00 h 99 W/m 13,8 km/h (3 Bft)
22.05.2013 15:00 9,0 C 88 % 1010,5 hPa 0,0 l/m W-NW 0,00 h 87 W/m 12,1 km/h (2 Bft)
22.05.2013 16:00 9,2 C 87 % 1010,6 hPa 0,0 l/m W-NW 0,00 h 89 W/m 14,2 km/h (3 Bft)
22.05.2013 17:00 9,3 C 85 % 1010,8 hPa 0,0 l/m W-NW 0,00 h 70 W/m 14,0 km/h (3 Bft)
22.05.2013 18:00 8,8 C 86 % 1011,0 hPa 0,0 l/m N-NW 0,00 h 28 W/m 13,6 km/h (3 Bft)
22.05.2013 19:00 8,7 C 83 % 1011,1 hPa 0,0 l/m NW 0,00 h 77 W/m 9,7 km/h (2 Bft)
22.05.2013 20:00 8,6 C 83 % 1011,6 hPa 0,0 l/m NW 0,00 h 12 W/m 11,8 km/h (2 Bft)
22.05.2013 21:00 6,6 C 92 % 1012,6 hPa 0,8 l/m N-NO 0,00 h 0 W/m 14,4 km/h (3 Bft)
22.05.2013 22:00 6,1 C 95 % 1013,1 hPa 0,0 l/m N-NW 0,00 h 0 W/m 6,3 km/h (2 Bft)
22.05.2013 23:00 6,0 C 95 % 1013,2 hPa 0,0 l/m N-NW 0,00 h 0 W/m 9,5 km/h (2 Bft)
23.05.2013 00:00 5,6 C 94 % 1012,8 hPa 0,0 l/m N-NW 0,00 h 0 W/m 4,3 km/h (1 Bft)
23.05.2013 01:00 5,3 C 95 % 1012,1 hPa 0,0 l/m N 0,00 h 0 W/m 0,5 km/h (0 Bft)
23.05.2013 02:00 5,3 C 96 % 1011,5 hPa 0,0 l/m N 0,00 h 0 W/m 1,6 km/h (1 Bft)
23.05.2013 03:00 5,4 C 97 % 1011,1 hPa 0,2 l/m N 0,00 h 0 W/m 1,6 km/h (1 Bft)
23.05.2013 04:00 5,5 C 97 % 1010,6 hPa 0,0 l/m W 0,00 h 0 W/m 4,7 km/h (1 Bft)
23.05.2013 05:00 5,3 C 97 % 1010,1 hPa 0,0 l/m W 0,00 h 5 W/m 3,3 km/h (1 Bft)
23.05.2013 06:00 5,3 C 97 % 1009,8 hPa 0,0 l/m SW 0,00 h 21 W/m 4,1 km/h (1 Bft)
23.05.2013 07:00 5,7 C 96 % 1009,4 hPa 0,0 l/m SW 0,00 h 61 W/m 6,8 km/h (2 Bft)
23.05.2013 08:00 6,2 C 94 % 1009,0 hPa 0,0 l/m W-SW 0,00 h 93 W/m 9,4 km/h (2 Bft)
23.05.2013 09:00 7,2 C 91 % 1008,6 hPa 0,0 l/m SW 0,00 h 165 W/m 10,9 km/h (2 Bft)
23.05.2013 10:00 7,6 C 89 % 1008,2 hPa 0,2 l/m SW 0,00 h 179 W/m 15,3 km/h (3 Bft)
23.05.2013 11:00 8,0 C 87 % 1007,4 hPa 0,0 l/m SW 0,25 h 412 W/m 17,0 km/h (3 Bft)
23.05.2013 12:00 10,8 C 77 % 1006,2 hPa 0,0 l/m SW 0,83 h 830 W/m 23,3 km/h (4 Bft)
23.05.2013 13:00 11,4 C 71 % 1005,5 hPa 0,0 l/m SW 0,50 h 530 W/m 23,9 km/h (4 Bft)
23.05.2013 14:00 11,8 C 66 % 1004,8 hPa 0,0 l/m W-SW 0,42 h 418 W/m 22,9 km/h (4 Bft)
23.05.2013 15:00 12,9 C 61 % 1004,1 hPa 0,0 l/m W-SW 0,67 h 632 W/m 18,1 km/h (3 Bft)
23.05.2013 16:00 12,9 C 59 % 1003,3 hPa 0,0 l/m W-SW 0,25 h 256 W/m 15,4 km/h (3 Bft)
23.05.2013 17:00 8,5 C 82 % 1004,5 hPa 1,8 l/m W 0,00 h 37 W/m 29,0 km/h (5 Bft)
23.05.2013 18:00 6,3 C 92 % 1005,4 hPa 2,2 l/m W 0,00 h 60 W/m 17,4 km/h (3 Bft)
23.05.2013 19:00 6,3 C 93 % 1005,5 hPa 0,4 l/m W-NW 0,00 h 57 W/m 11,1 km/h (2 Bft)
23.05.2013 20:00 5,8 C 92 % 1006,6 hPa 0,0 l/m W 0,17 h 14 W/m 13,7 km/h (3 Bft)
23.05.2013 21:00 5,0 C 91 % 1007,8 hPa 0,0 l/m W-NW 0,00 h 7 W/m 14,8 km/h (3 Bft)
23.05.2013 22:00 4,3 C 92 % 1008,5 hPa 0,0 l/m W 0,00 h 0 W/m 11,7 km/h (2 Bft)
23.05.2013 23:00 4,1 C 92 % 1008,9 hPa 0,0 l/m W 0,00 h 0 W/m 14,0 km/h (3 Bft)
24.05.2013 00:00 3,3 C 93 % 1009,0 hPa 0,0 l/m W-SW 0,00 h 0 W/m 12,2 km/h (2 Bft)
24.05.2013 01:00 2,9 C 93 % 1008,9 hPa 0,0 l/m W 0,00 h 0 W/m 12,8 km/h (3 Bft)
24.05.2013 02:00 2,8 C 93 % 1008,6 hPa 0,0 l/m W 0,00 h 0 W/m 10,7 km/h (2 Bft)
24.05.2013 03:00 3,1 C 94 % 1008,3 hPa 0,0 l/m W 0,00 h 0 W/m 8,2 km/h (2 Bft)
24.05.2013 04:00 2,7 C 93 % 1008,3 hPa 0,0 l/m W-NW 0,00 h 0 W/m 3,2 km/h (1 Bft)
24.05.2013 05:00 2,6 C 94 % 1008,7 hPa 0,0 l/m W-NW 0,00 h 6 W/m 2,1 km/h (1 Bft)
24.05.2013 06:00 2,8 C 95 % 1009,0 hPa 0,0 l/m N 0,00 h 22 W/m 0,3 km/h (0 Bft)
24.05.2013 07:00 3,4 C 92 % 1009,2 hPa 0,0 l/m W-NW 0,00 h 69 W/m 1,5 km/h (1 Bft)
24.05.2013 08:00 4,3 C 87 % 1009,3 hPa 0,0 l/m NW 0,00 h 145 W/m 4,8 km/h (1 Bft)
24.05.2013 09:00 5,3 C 83 % 1009,5 hPa 0,0 l/m N-NW 0,08 h 256 W/m 7,8 km/h (2 Bft)
24.05.2013 10:00 6,2 C 78 % 1009,4 hPa 0,0 l/m N 0,08 h 321 W/m 10,1 km/h (2 Bft)
24.05.2013 11:00 6,9 C 76 % 1009,4 hPa 0,0 l/m N-NO 0,08 h 302 W/m 12,9 km/h (3 Bft)
24.05.2013 12:00 7,4 C 73 % 1009,4 hPa 0,0 l/m N 0,17 h 404 W/m 16,6 km/h (3 Bft)
24.05.2013 13:00 7,7 C 69 % 1009,4 hPa 0,0 l/m N-NW 0,00 h 300 W/m 12,4 km/h (3 Bft)
24.05.2013 14:00 7,7 C 71 % 1009,3 hPa 0,0 l/m NW 0,00 h 192 W/m 10,7 km/h (2 Bft)
24.05.2013 15:00 7,0 C 77 % 1009,8 hPa 0,2 l/m O 0,00 h 146 W/m 10,6 km/h (2 Bft)
24.05.2013 16:00 7,1 C 81 % 1010,0 hPa 0,0 l/m S-SW 0,00 h 213 W/m 8,7 km/h (2 Bft)
24.05.2013 17:00 6,8 C 84 % 1010,2 hPa 0,0 l/m SW 0,00 h 98 W/m 11,6 km/h (2 Bft)
24.05.2013 18:00 6,2 C 85 % 1010,5 hPa 0,0 l/m W-SW 0,00 h 178 W/m 12,0 km/h (2 Bft)
24.05.2013 19:00 5,5 C 86 % 1010,8 hPa 0,0 l/m S-SW 0,00 h 65 W/m 9,8 km/h (2 Bft)
24.05.2013 20:00 4,8 C 89 % 1011,0 hPa 0,0 l/m S-SW 0,00 h 17 W/m 9,0 km/h (2 Bft)
24.05.2013 21:00 4,3 C 90 % 1011,3 hPa 0,0 l/m N 0,00 h 0 W/m 2,5 km/h (1 Bft)
24.05.2013 22:00 4,1 C 91 % 1011,4 hPa 0,0 l/m SW 0,00 h 0 W/m 2,8 km/h (1 Bft)
24.05.2013 23:00 3,7 C 93 % 1011,4 hPa 0,0 l/m N 0,00 h 0 W/m 0,4 km/h (0 Bft)
25.05.2013 00:00 2,6 C 95 % 1011,4 hPa 0,0 l/m N 0,00 h 0 W/m 0,7 km/h (0 Bft)
25.05.2013 01:00 2,3 C 97 % 1011,1 hPa 0,0 l/m N 0,00 h 0 W/m 1,3 km/h (1 Bft)
25.05.2013 02:00 2,1 C 98 % 1010,7 hPa 0,0 l/m N 0,00 h 0 W/m 1,9 km/h (1 Bft)
25.05.2013 03:00 1,9 C 98 % 1010,4 hPa 0,0 l/m N 0,00 h 0 W/m 1,5 km/h (1 Bft)
25.05.2013 04:00 1,6 C 98 % 1010,2 hPa 0,0 l/m N 0,00 h 0 W/m 2,7 km/h (1 Bft)
25.05.2013 05:00 1,3 C 98 % 1010,2 hPa 0,0 l/m NW 0,00 h 10 W/m 5,6 km/h (1 Bft)
25.05.2013 06:00 1,8 C 99 % 1010,2 hPa 0,0 l/m NW 0,00 h 38 W/m 2,4 km/h (1 Bft)
25.05.2013 07:00 2,6 C 99 % 1010,3 hPa 0,0 l/m NW 0,00 h 102 W/m 2,7 km/h (1 Bft)
25.05.2013 08:00 4,3 C 96 % 1010,4 hPa 0,0 l/m NW 0,42 h 236 W/m 6,4 km/h (2 Bft)
25.05.2013 09:00 6,6 C 84 % 1010,4 hPa 0,0 l/m N-NO 0,25 h 277 W/m 10,1 km/h (2 Bft)
25.05.2013 10:00 7,9 C 73 % 1010,5 hPa 0,0 l/m NO 0,33 h 429 W/m 12,9 km/h (3 Bft)
25.05.2013 11:00 9,3 C 63 % 1010,5 hPa 0,0 l/m O-NO 0,42 h 445 W/m 14,0 km/h (3 Bft)
25.05.2013 12:00 8,6 C 71 % 1010,8 hPa 0,0 l/m N-NO 0,25 h 377 W/m 18,2 km/h (3 Bft)
25.05.2013 13:00 8,9 C 68 % 1010,6 hPa 0,0 l/m N-NO 0,00 h 311 W/m 14,0 km/h (3 Bft)
25.05.2013 14:00 10,0 C 58 % 1010,4 hPa 0,0 l/m NO 0,08 h 400 W/m 17,0 km/h (3 Bft)
25.05.2013 15:00 9,9 C 66 % 1010,7 hPa 0,0 l/m N-NO 0,42 h 455 W/m 20,4 km/h (4 Bft)
25.05.2013 16:00 10,1 C 60 % 1010,5 hPa 0,0 l/m NO 0,33 h 392 W/m 10,6 km/h (2 Bft)
25.05.2013 17:00 9,4 C 64 % 1010,7 hPa 0,0 l/m N-NW 0,00 h 172 W/m 14,2 km/h (3 Bft)
25.05.2013 18:00 10,1 C 63 % 1010,8 hPa 0,0 l/m O-SO 0,42 h 184 W/m 10,2 km/h (2 Bft)
25.05.2013 19:00 8,1 C 74 % 1011,4 hPa 0,2 l/m N-NW 0,00 h 31 W/m 12,3 km/h (3 Bft)
25.05.2013 20:00 7,7 C 81 % 1011,8 hPa 0,0 l/m O-SO 0,17 h 29 W/m 4,9 km/h (1 Bft)
25.05.2013 21:00 6,1 C 89 % 1012,6 hPa 0,0 l/m W-SW 0,00 h 0 W/m 9,9 km/h (2 Bft)
25.05.2013 22:00 5,5 C 89 % 1013,2 hPa 0,0 l/m SW 0,00 h 0 W/m 7,3 km/h (2 Bft)
25.05.2013 23:00 5,0 C 94 % 1013,3 hPa 0,0 l/m S 0,00 h 0 W/m 7,6 km/h (2 Bft)
26.05.2013 00:00 5,2 C 94 % 1013,3 hPa 0,0 l/m SW 0,00 h 0 W/m 6,8 km/h (2 Bft)
26.05.2013 01:00 5,2 C 92 % 1013,3 hPa 0,0 l/m SW 0,00 h 0 W/m 7,2 km/h (2 Bft)
26.05.2013 02:00 5,2 C 92 % 1013,1 hPa 0,0 l/m W-SW 0,00 h 0 W/m 11,4 km/h (2 Bft)
26.05.2013 03:00 5,1 C 93 % 1012,7 hPa 0,2 l/m W-SW 0,00 h 0 W/m 10,6 km/h (2 Bft)
26.05.2013 04:00 4,9 C 92 % 1012,6 hPa 0,4 l/m W 0,00 h 0 W/m 12,9 km/h (3 Bft)
26.05.2013 05:00 4,7 C 94 % 1012,6 hPa 0,2 l/m W-SW 0,00 h 10 W/m 12,0 km/h (2 Bft)
26.05.2013 06:00 4,9 C 95 % 1012,7 hPa 0,0 l/m W-SW 0,00 h 34 W/m 14,8 km/h (3 Bft)
26.05.2013 07:00 5,5 C 94 % 1012,7 hPa 0,0 l/m W-SW 0,00 h 77 W/m 17,6 km/h (3 Bft)
26.05.2013 08:00 5,9 C 93 % 1012,7 hPa 0,2 l/m W-SW 0,08 h 117 W/m 20,2 km/h (4 Bft)
26.05.2013 09:00 6,8 C 89 % 1012,5 hPa 0,0 l/m W-SW 0,00 h 186 W/m 23,2 km/h (4 Bft)
26.05.2013 10:00 7,2 C 86 % 1012,3 hPa 0,0 l/m SW 0,00 h 184 W/m 26,5 km/h (4 Bft)
26.05.2013 11:00 8,1 C 82 % 1012,0 hPa 0,0 l/m W 0,08 h 281 W/m 28,4 km/h (4 Bft)
26.05.2013 12:00 8,1 C 80 % 1011,9 hPa 0,0 l/m W-SW 0,00 h 182 W/m 28,7 km/h (4 Bft)
26.05.2013 13:00 8,4 C 70 % 1011,8 hPa 0,0 l/m W-SW 0,00 h 189 W/m 34,9 km/h (5 Bft)
26.05.2013 14:00 6,6 C 82 % 1012,3 hPa 0,6 l/m W 0,00 h 107 W/m 25,1 km/h (4 Bft)
26.05.2013 15:00 5,6 C 91 % 1012,5 hPa 1,6 l/m W 0,00 h 78 W/m 27,1 km/h (4 Bft)
26.05.2013 16:00 5,5 C 93 % 1012,4 hPa 1,2 l/m W 0,00 h 77 W/m 23,2 km/h (4 Bft)
26.05.2013 17:00 5,7 C 94 % 1012,1 hPa 1,2 l/m W-SW 0,00 h 71 W/m 21,6 km/h (4 Bft)
26.05.2013 18:00 5,9 C 94 % 1012,3 hPa 1,4 l/m W 0,00 h 52 W/m 25,1 km/h (4 Bft)
26.05.2013 19:00 5,7 C 94 % 1012,3 hPa 0,6 l/m W-SW 0,00 h 29 W/m 20,4 km/h (4 Bft)
26.05.2013 20:00 5,7 C 94 % 1012,2 hPa 0,0 l/m W 0,00 h 12 W/m 28,0 km/h (4 Bft)
26.05.2013 21:00 5,3 C 94 % 1012,4 hPa 0,2 l/m W-SW 0,00 h 0 W/m 22,0 km/h (4 Bft)
26.05.2013 22:00 5,1 C 94 % 1012,7 hPa 0,2 l/m W-SW 0,00 h 0 W/m 23,6 km/h (4 Bft)
26.05.2013 23:00 5,3 C 94 % 1012,6 hPa 0,0 l/m W 0,00 h 0 W/m 22,0 km/h (4 Bft)
Min-Datum _ 25.05.13 20.05.13 23.05.13 - - - - 21.05.13
_ Min-Zeit 04:40 15:35 16:15 - - - - 00:20
Minimum _ 1,3 C 47 % 1003,1 hPa - - - - 0,0 km/h (0 Bft)
Max-Datum _ 20.05.13 23.05.13 25.05.13 23.05.13 - 20.05.13 23.05.13 23.05.13
_ Max-Zeit 15:35 07:35 23:45 18:05 - 07:00 12:45 17:05
Maximum _ 16,6 C 100 % 1013,5 hPa 2,2 l/m - 0,08 h 1095 W/m 49,9 km/h
W (6 Bft)
Durchschnitt _ 7,6 C 85 % 1010,3 hPa #17,2 l/m W-SW #13:20 h 192 W/m 13,1 km/h (3 Bft)